Terminal Aerodrome Forecast
Issued by NWS Duluth, MN

Home | Current Version | Previous Version | Text Only | Print | Product List | Glossary On
Versions: 1 2 3 4 5 6 7 8 9 10 11 12 13 14 15 16 17 18
000
FTUS43 KDLH 291121
TAFINL
TAF
KINL 291121Z 2912/3012 29002KT 4SM BR SCT100
      TEMPO 2912/2913 6SM BR SCT100
     FM291300 29005KT P6SM FEW030 BKN090
     FM291600 33009KT P6SM VCSH SCT040 SCT080
     FM291900 35010G17KT P6SM VCTS BKN050CB
     FM300200 02005KT P6SM SKC=

USA.gov is the U.S. government's official web portal to all federal, state and local government web resources and services.